MIZ weather

Mainoru Airstrip
Mainoru, Northern Territory, Australia

Public forecast

Using degrees Celsius for public forecast. Weather courtesy of forecast.io.

Closest aviation weather report (METAR) to Mainoru Airstrip

Closest report is Tindal Airport, 103.7 nm (192.1 km) WSW. Retrieved 2020/05/26 19:30 UTC (26 minutes ago):

YPTN 261930Z AUTO 13005KT 9999 // NCD 16/12 Q1015 RF000/0000

Closest aviation forecast (TAF) to Mainoru Airstrip

Closest forecast is Tindal Airport, 103.7 nm (192.1 km) WSW. Retrieved 2020/05/26 18:00 UTC (2 hours ago):

TAF YPTN 261704Z 2618/2718 11008KT CAVOK